createdAt,value
2023-04-29T00:00:00.777Z,98206.53
2023-04-29T00:02:44.059Z,98205.41
2023-04-29T00:05:17.515Z,98203.28
2023-04-29T00:07:49.693Z,98203.59
2023-04-29T00:10:22.151Z,98196.91
2023-04-29T00:12:54.996Z,98205.78
2023-04-29T00:15:27.768Z,98198.34
2023-04-29T00:18:00.093Z,98203.84
2023-04-29T00:20:33.248Z,98198.19
2023-04-29T00:23:05.522Z,98196.22
2023-04-29T00:25:38.864Z,98204.72
2023-04-29T00:28:11.232Z,98199.88
2023-04-29T00:30:43.588Z,98195.38
2023-04-29T00:33:15.523Z,98189.19
2023-04-29T00:35:48.610Z,98195.53
2023-04-29T00:38:21.596Z,98191.66
2023-04-29T00:40:53.762Z,98182.69
2023-04-29T00:43:27.478Z,98190.00
2023-04-29T00:45:59.483Z,98190.44
2023-04-29T00:48:33.436Z,98189.72
2023-04-29T00:51:06.594Z,98185.03
2023-04-29T00:53:40.098Z,98183.78
2023-04-29T00:56:15.298Z,98179.66
2023-04-29T00:58:50.177Z,98178.78
2023-04-29T01:01:23.715Z,98185.78
2023-04-29T01:03:58.272Z,98189.59
2023-04-29T01:06:59.676Z,98190.56
2023-04-29T01:09:53.363Z,98187.56
2023-04-29T01:13:00.969Z,98184.47
2023-04-29T01:15:49.729Z,98186.34
2023-04-29T01:18:56.811Z,98192.50
2023-04-29T01:21:49.630Z,98186.25
2023-04-29T01:24:21.693Z,98185.22
2023-04-29T01:30:58.754Z,98182.81
2023-04-29T01:34:06.404Z,98177.31
2023-04-29T01:37:09.369Z,98178.16
2023-04-29T01:40:15.351Z,98173.13
2023-04-29T01:43:05.223Z,98174.88
2023-04-29T01:45:44.521Z,98166.25
2023-04-29T01:51:12.397Z,98171.41
2023-04-29T01:53:47.277Z,98171.72
2023-04-29T01:56:19.242Z,98166.59
2023-04-29T01:59:03.852Z,98171.16
2023-04-29T02:01:47.739Z,98165.28
2023-04-29T02:04:20.630Z,98164.22
2023-04-29T02:06:53.522Z,98157.41
2023-04-29T02:09:26.148Z,98159.13
2023-04-29T02:12:06.145Z,98169.09
2023-04-29T02:14:38.262Z,98158.84
2023-04-29T02:17:12.316Z,98173.47
2023-04-29T02:19:46.580Z,98168.75
2023-04-29T02:22:19.948Z,98178.06
2023-04-29T02:24:52.056Z,98179.56
2023-04-29T02:27:24.845Z,98181.00
2023-04-29T02:29:57.292Z,98180.84
2023-04-29T02:32:31.131Z,98171.31
2023-04-29T02:35:04.340Z,98185.97
2023-04-29T02:37:37.503Z,98181.38
2023-04-29T02:40:09.910Z,98181.03
2023-04-29T02:42:42.847Z,98184.69
2023-04-29T02:45:15.266Z,98188.84
2023-04-29T02:47:47.598Z,98180.91
2023-04-29T02:50:20.887Z,98181.06
2023-04-29T02:52:53.544Z,98179.97
2023-04-29T02:55:27.375Z,98169.44
2023-04-29T02:58:03.826Z,98182.13
2023-04-29T03:00:36.691Z,98178.88
2023-04-29T03:03:09.833Z,98187.59
2023-04-29T03:05:42.410Z,98178.28
2023-04-29T03:08:15.715Z,98173.03
2023-04-29T03:10:47.736Z,98177.75
2023-04-29T03:13:21.245Z,98174.50
2023-04-29T03:15:54.188Z,98179.06
2023-04-29T03:18:27.490Z,98172.41
2023-04-29T03:20:59.815Z,98171.72
2023-04-29T03:23:32.890Z,98178.38
2023-04-29T03:26:07.591Z,98171.06
2023-04-29T03:28:43.071Z,98177.66
2023-04-29T03:31:16.651Z,98171.56
2023-04-29T03:33:49.489Z,98163.47
2023-04-29T03:36:21.384Z,98162.31
2023-04-29T03:39:14.035Z,98169.63
2023-04-29T03:41:47.733Z,98168.41
2023-04-29T03:44:23.206Z,98172.44
2023-04-29T03:46:55.200Z,98175.78
2023-04-29T03:49:28.950Z,98180.38
2023-04-29T03:52:00.954Z,98175.09
2023-04-29T03:54:34.270Z,98177.13
2023-04-29T03:57:06.924Z,98173.31
2023-04-29T03:59:40.089Z,98178.69
2023-04-29T04:02:12.999Z,98183.97
2023-04-29T04:04:46.549Z,98182.56
2023-04-29T04:07:18.535Z,98181.50
2023-04-29T04:10:10.552Z,98180.53
2023-04-29T04:12:44.158Z,98181.66
2023-04-29T04:15:17.462Z,98179.81
2023-04-29T04:17:49.439Z,98185.53
2023-04-29T04:20:22.392Z,98194.09
2023-04-29T04:22:57.365Z,98187.59
2023-04-29T04:25:33.258Z,98188.16
2023-04-29T04:28:19.699Z,98193.63
2023-04-29T04:31:02.474Z,98200.88
2023-04-29T04:33:35.702Z,98200.34
2023-04-29T04:36:08.568Z,98205.47
2023-04-29T04:38:40.433Z,98208.72
2023-04-29T04:41:16.951Z,98209.34
2023-04-29T04:43:51.906Z,98211.81
2023-04-29T04:46:37.249Z,98213.25
2023-04-29T04:49:27.560Z,98221.94
2023-04-29T04:51:59.885Z,98224.47
2023-04-29T04:54:32.428Z,98227.94
2023-04-29T04:57:12.689Z,98227.19
2023-04-29T04:59:45.039Z,98234.59
2023-04-29T05:02:18.050Z,98241.88
2023-04-29T05:04:50.014Z,98239.22
2023-04-29T05:07:24.396Z,98245.75
2023-04-29T05:10:14.636Z,98252.34
2023-04-29T05:12:54.377Z,98259.53
2023-04-29T05:15:27.723Z,98247.00
2023-04-29T05:18:02.853Z,98250.97
2023-04-29T05:20:36.422Z,98260.06
2023-04-29T05:23:10.127Z,98261.91
2023-04-29T05:25:45.093Z,98274.97
2023-04-29T05:28:17.171Z,98267.38
2023-04-29T05:30:53.558Z,98266.59
2023-04-29T05:33:26.973Z,98273.44
2023-04-29T05:35:59.250Z,98277.41
2023-04-29T05:38:32.940Z,98271.34
2023-04-29T05:41:08.758Z,98276.81
2023-04-29T05:43:47.235Z,98293.41
2023-04-29T05:46:23.082Z,98292.75
2023-04-29T05:48:56.576Z,98303.28
2023-04-29T05:51:28.583Z,98302.03
2023-04-29T05:54:02.032Z,98303.81
2023-04-29T05:56:35.609Z,98311.47
2023-04-29T05:59:07.919Z,98313.72
2023-04-29T06:01:39.982Z,98308.84
2023-04-29T06:04:13.343Z,98322.59
2023-04-29T06:07:05.558Z,98322.50
2023-04-29T06:09:56.872Z,98327.50
2023-04-29T06:12:31.425Z,98322.59
2023-04-29T06:15:04.296Z,98331.03
2023-04-29T06:17:38.128Z,98323.47
2023-04-29T06:20:11.583Z,98326.88
2023-04-29T06:22:44.636Z,98325.16
2023-04-29T06:25:16.742Z,98326.44
2023-04-29T06:27:54.069Z,98334.53
2023-04-29T06:30:28.941Z,98333.28
2023-04-29T06:33:02.473Z,98332.09
2023-04-29T06:35:34.559Z,98340.53
2023-04-29T06:38:25.589Z,98330.34
2023-04-29T06:41:16.801Z,98336.75
2023-04-29T06:44:01.296Z,98331.66
2023-04-29T06:46:57.120Z,98331.69
2023-04-29T06:49:45.132Z,98328.31
2023-04-29T06:52:17.382Z,98336.13
2023-04-29T06:54:49.797Z,98336.88
2023-04-29T06:57:24.316Z,98334.94
2023-04-29T06:59:56.363Z,98331.44
2023-04-29T07:02:30.440Z,98341.34
2023-04-29T07:05:02.812Z,98345.25
2023-04-29T07:07:35.440Z,98342.72
2023-04-29T07:10:08.325Z,98341.84
2023-04-29T07:12:40.353Z,98343.03
2023-04-29T07:15:13.330Z,98350.06
2023-04-29T07:17:45.402Z,98348.41
2023-04-29T07:20:21.354Z,98358.63
2023-04-29T07:22:54.594Z,98358.25
2023-04-29T07:25:29.582Z,98355.41
2023-04-29T07:28:01.493Z,98359.56
2023-04-29T07:30:34.171Z,98360.66
2023-04-29T07:33:06.315Z,98360.56
2023-04-29T07:35:39.044Z,98361.88
2023-04-29T07:38:11.343Z,98361.84
2023-04-29T07:40:45.342Z,98361.31
2023-04-29T07:43:17.924Z,98364.50
2023-04-29T07:45:50.586Z,98364.91
2023-04-29T07:48:22.800Z,98367.88
2023-04-29T07:50:55.821Z,98369.41
2023-04-29T07:53:28.219Z,98376.88
2023-04-29T07:56:05.824Z,98374.34
2023-04-29T07:58:37.924Z,98373.75
2023-04-29T08:01:12.086Z,98375.16
2023-04-29T08:03:45.579Z,98388.44
2023-04-29T08:06:22.313Z,98385.09
2023-04-29T08:08:56.237Z,98388.31
2023-04-29T08:11:28.523Z,98385.91
2023-04-29T08:14:00.630Z,98385.91
2023-04-29T08:16:33.284Z,98391.72
2023-04-29T08:19:05.234Z,98379.66
2023-04-29T08:21:37.943Z,98382.25
2023-04-29T08:24:09.837Z,98384.66
2023-04-29T08:26:42.751Z,98383.38
2023-04-29T08:29:16.200Z,98383.53
2023-04-29T08:31:48.922Z,98376.69
2023-04-29T08:34:21.318Z,98377.22
2023-04-29T08:36:53.831Z,98384.09
2023-04-29T08:39:26.121Z,98375.06
2023-04-29T08:41:59.375Z,98365.72
2023-04-29T08:44:32.642Z,98369.03
2023-04-29T08:47:06.617Z,98372.19
2023-04-29T08:49:38.517Z,98375.97
2023-04-29T08:52:11.945Z,98364.09
2023-04-29T08:54:44.279Z,98372.03
2023-04-29T08:57:17.003Z,98367.44
2023-04-29T08:59:49.341Z,98372.00
2023-04-29T09:02:23.192Z,98376.59
2023-04-29T09:05:01.219Z,98374.59
2023-04-29T09:07:34.347Z,98372.31
2023-04-29T09:10:08.266Z,98376.50
2023-04-29T09:12:40.588Z,98378.69
2023-04-29T09:15:13.174Z,98382.97
2023-04-29T09:17:48.187Z,98378.41
2023-04-29T09:20:21.399Z,98379.84
2023-04-29T09:22:59.979Z,98378.19
2023-04-29T09:25:32.879Z,98379.44
2023-04-29T09:28:17.450Z,98381.38
2023-04-29T09:30:51.005Z,98378.38
2023-04-29T09:33:22.967Z,98381.97
2023-04-29T09:35:55.584Z,98387.09
2023-04-29T09:38:28.148Z,98381.19
2023-04-29T09:41:10.179Z,98380.72
2023-04-29T09:43:42.613Z,98385.59
2023-04-29T09:46:15.829Z,98387.25
2023-04-29T09:48:47.833Z,98377.19
2023-04-29T09:51:20.812Z,98380.56
2023-04-29T09:53:52.738Z,98385.38
2023-04-29T09:56:29.354Z,98370.97
2023-04-29T09:59:09.381Z,98380.44
2023-04-29T10:01:42.502Z,98384.41
2023-04-29T10:04:17.429Z,98387.66
2023-04-29T10:06:52.938Z,98387.09
2023-04-29T10:09:24.847Z,98384.66
2023-04-29T10:11:57.523Z,98382.53
2023-04-29T10:14:35.334Z,98380.03
2023-04-29T10:17:17.749Z,98379.25
2023-04-29T10:20:06.154Z,98374.53
2023-04-29T10:22:54.825Z,98377.91
2023-04-29T10:25:28.626Z,98370.50
2023-04-29T10:28:01.614Z,98372.91
2023-04-29T10:30:36.160Z,98375.50
2023-04-29T10:33:09.684Z,98358.06
2023-04-29T10:35:45.401Z,98356.94
2023-04-29T10:38:40.241Z,98366.91
2023-04-29T10:41:24.998Z,98363.56
2023-04-29T10:44:00.648Z,98365.34
2023-04-29T10:46:34.777Z,98366.44
2023-04-29T10:49:07.555Z,98366.44
2023-04-29T10:51:43.303Z,98368.09
2023-04-29T10:54:26.183Z,98370.91
2023-04-29T10:56:58.093Z,98357.19
2023-04-29T10:59:33.637Z,98362.22
2023-04-29T11:02:06.061Z,98366.41
2023-04-29T11:05:11.436Z,98360.22
2023-04-29T11:07:46.109Z,98356.00
2023-04-29T11:10:18.801Z,98345.69
2023-04-29T11:13:28.139Z,98351.44
2023-04-29T11:16:11.856Z,98350.53
2023-04-29T11:19:08.992Z,98353.47
2023-04-29T11:21:41.267Z,98346.38
2023-04-29T11:24:16.452Z,98357.81
2023-04-29T11:26:49.063Z,98348.78
2023-04-29T11:29:23.085Z,98349.13
2023-04-29T11:32:04.734Z,98351.16
2023-04-29T11:34:37.823Z,98345.09
2023-04-29T11:37:10.367Z,98346.16
2023-04-29T11:39:43.309Z,98347.50
2023-04-29T11:42:21.403Z,98346.94
2023-04-29T11:44:57.362Z,98347.28
2023-04-29T11:47:31.056Z,98353.78
2023-04-29T11:50:09.120Z,98347.19
2023-04-29T11:52:41.614Z,98342.66
2023-04-29T11:55:15.055Z,98348.38
2023-04-29T11:57:51.050Z,98342.97
2023-04-29T12:00:25.204Z,98346.09
2023-04-29T12:02:58.821Z,98339.28
2023-04-29T12:05:32.096Z,98341.03
2023-04-29T12:08:04.268Z,98341.81
2023-04-29T12:10:36.905Z,98334.69
2023-04-29T12:13:10.348Z,98339.31
2023-04-29T12:15:43.949Z,98336.00
2023-04-29T12:18:18.565Z,98333.25
2023-04-29T12:20:56.302Z,98340.97
2023-04-29T12:23:28.391Z,98339.00
2023-04-29T12:26:01.820Z,98338.19
2023-04-29T12:28:34.710Z,98344.63
2023-04-29T12:31:09.438Z,98337.50
2023-04-29T12:33:46.856Z,98337.41
2023-04-29T12:36:19.417Z,98338.78
2023-04-29T12:38:55.003Z,98338.78
2023-04-29T12:41:42.752Z,98337.50
2023-04-29T12:44:16.677Z,98335.00
2023-04-29T12:46:48.640Z,98346.81
2023-04-29T12:49:21.641Z,98343.44
2023-04-29T12:51:53.669Z,98346.47
2023-04-29T12:54:26.716Z,98347.63
2023-04-29T12:56:59.040Z,98338.66
2023-04-29T12:59:31.589Z,98345.50
2023-04-29T13:02:03.594Z,98342.34
2023-04-29T13:04:36.234Z,98339.59
2023-04-29T13:07:08.285Z,98345.94
2023-04-29T13:09:42.047Z,98342.88
2023-04-29T13:12:14.305Z,98349.91
2023-04-29T13:14:47.234Z,98342.63
2023-04-29T13:17:19.524Z,98346.91
2023-04-29T13:19:52.506Z,98347.13
2023-04-29T13:22:24.504Z,98349.53
2023-04-29T13:24:57.342Z,98338.31
2023-04-29T13:27:29.297Z,98343.53
2023-04-29T13:30:02.423Z,98341.63
2023-04-29T13:32:43.625Z,98347.19
2023-04-29T13:35:21.854Z,98324.03
2023-04-29T13:37:53.727Z,98335.06
2023-04-29T13:40:28.064Z,98346.63
2023-04-29T13:43:05.957Z,98334.03
2023-04-29T13:45:45.334Z,98338.94
2023-04-29T13:48:45.310Z,98351.47
2023-04-29T13:56:53.341Z,98341.81
2023-04-29T14:02:23.450Z,98359.44
2023-04-29T14:04:46.400Z,98352.28
2023-04-29T14:07:18.396Z,98348.66
2023-04-29T14:09:52.172Z,98354.50
2023-04-29T14:12:24.480Z,98350.19
2023-04-29T14:15:00.174Z,98355.56
2023-04-29T14:17:33.000Z,98360.81
2023-04-29T14:20:06.580Z,98350.72
2023-04-29T14:22:38.841Z,98348.31
2023-04-29T14:25:12.705Z,98357.44
2023-04-29T14:27:44.615Z,98356.09
2023-04-29T14:30:17.660Z,98355.09
2023-04-29T14:32:49.677Z,98357.50
2023-04-29T14:35:22.641Z,98367.13
2023-04-29T14:37:54.513Z,98365.63
2023-04-29T14:40:27.115Z,98364.72
2023-04-29T14:42:59.411Z,98375.28
2023-04-29T14:45:34.640Z,98372.25
2023-04-29T14:48:08.306Z,98374.53
2023-04-29T14:50:41.038Z,98382.53
2023-04-29T14:53:13.021Z,98371.75
2023-04-29T14:55:46.303Z,98369.91
2023-04-29T14:58:18.643Z,98371.25
2023-04-29T15:00:51.908Z,98371.91
2023-04-29T15:03:24.108Z,98372.91
2023-04-29T15:05:59.178Z,98373.13
2023-04-29T15:08:32.091Z,98385.25
2023-04-29T15:11:04.786Z,98380.81
2023-04-29T15:13:37.562Z,98381.81
2023-04-29T15:16:10.326Z,98382.38
2023-04-29T15:21:36.079Z,98378.91
2023-04-29T15:24:09.765Z,98384.06
2023-04-29T15:26:42.092Z,98386.56
2023-04-29T15:29:15.136Z,98380.31
2023-04-29T15:31:47.852Z,98382.16
2023-04-29T15:34:19.731Z,98386.22
2023-04-29T15:36:52.807Z,98382.13
2023-04-29T15:39:25.071Z,98395.28
2023-04-29T15:41:59.244Z,98390.78
2023-04-29T15:44:33.079Z,98386.38
2023-04-29T15:47:05.046Z,98395.59
2023-04-29T15:49:38.739Z,98394.31
2023-04-29T15:52:11.006Z,98384.47
2023-04-29T15:54:44.107Z,98391.16
2023-04-29T15:57:41.664Z,98415.97
2023-04-29T16:00:13.899Z,98412.19
2023-04-29T16:02:47.230Z,98411.19
2023-04-29T16:05:19.158Z,98402.28
2023-04-29T16:07:52.359Z,98412.53
2023-04-29T16:10:24.389Z,98413.38
2023-04-29T16:12:57.229Z,98415.16
2023-04-29T16:15:30.415Z,98412.25
2023-04-29T16:18:02.385Z,98423.47
2023-04-29T16:20:35.369Z,98424.72
2023-04-29T16:23:08.115Z,98417.72
2023-04-29T16:26:02.164Z,98422.38
2023-04-29T16:28:34.567Z,98420.13
2023-04-29T16:31:08.138Z,98422.63
2023-04-29T16:33:41.084Z,98427.13
2023-04-29T16:36:14.349Z,98432.13
2023-04-29T16:38:47.019Z,98433.44
2023-04-29T16:41:18.862Z,98434.06
2023-04-29T16:43:51.586Z,98435.72
2023-04-29T16:46:24.675Z,98441.47
2023-04-29T16:48:57.124Z,98430.44
2023-04-29T16:51:30.426Z,98442.94
2023-04-29T16:54:02.629Z,98439.69
2023-04-29T16:56:35.358Z,98446.13
2023-04-29T16:59:08.452Z,98442.44
2023-04-29T17:04:35.973Z,98450.03
2023-04-29T17:07:09.770Z,98454.38
2023-04-29T17:09:41.719Z,98453.41
2023-04-29T17:12:14.641Z,98442.59
2023-04-29T17:14:48.327Z,98451.34
2023-04-29T17:17:21.775Z,98450.84
2023-04-29T17:19:55.393Z,98451.88
2023-04-29T17:22:28.978Z,98451.75
2023-04-29T17:25:01.665Z,98443.63
2023-04-29T17:27:34.710Z,98447.38
2023-04-29T17:30:08.100Z,98445.41
2023-04-29T17:32:41.784Z,98452.75
2023-04-29T17:35:13.721Z,98453.41
2023-04-29T17:37:47.995Z,98468.25
2023-04-29T17:40:20.023Z,98464.50
2023-04-29T17:42:52.924Z,98458.41
2023-04-29T17:45:25.797Z,98455.97
2023-04-29T17:47:58.646Z,98468.72
2023-04-29T17:50:30.880Z,98477.53
2023-04-29T17:53:03.637Z,98485.06
2023-04-29T17:55:40.002Z,98475.91
2023-04-29T17:58:12.147Z,98474.59
2023-04-29T18:00:46.567Z,98480.56
2023-04-29T18:03:18.960Z,98484.88
2023-04-29T18:05:51.992Z,98478.28
2023-04-29T18:08:24.814Z,98487.19
2023-04-29T18:10:57.113Z,98487.44
2023-04-29T18:13:29.534Z,98490.31
2023-04-29T18:16:02.294Z,98492.25
2023-04-29T18:18:35.737Z,98498.69
2023-04-29T18:21:09.506Z,98491.09
2023-04-29T18:23:41.874Z,98488.53
2023-04-29T18:26:15.770Z,98490.53
2023-04-29T18:28:48.519Z,98483.22
2023-04-29T18:31:23.521Z,98483.41
2023-04-29T18:33:55.843Z,98485.41
2023-04-29T18:36:29.091Z,98488.63
2023-04-29T18:39:02.235Z,98493.22
2023-04-29T18:41:34.154Z,98483.47
2023-04-29T18:44:06.870Z,98488.81
2023-04-29T18:46:39.376Z,98484.09
2023-04-29T18:49:16.415Z,98485.63
2023-04-29T18:51:49.678Z,98497.66
2023-04-29T18:54:22.913Z,98500.94
2023-04-29T18:56:55.926Z,98493.59
2023-04-29T18:59:30.030Z,98489.66
2023-04-29T19:02:02.129Z,98493.03
2023-04-29T19:04:36.197Z,98499.09
2023-04-29T19:07:08.125Z,98511.00
2023-04-29T19:09:40.978Z,98512.38
2023-04-29T19:12:12.837Z,98515.09
2023-04-29T19:14:45.703Z,98515.72
2023-04-29T19:17:18.327Z,98515.22
2023-04-29T19:19:50.302Z,98517.94
2023-04-29T19:22:23.088Z,98515.94
2023-04-29T19:24:55.860Z,98519.25
2023-04-29T19:27:28.997Z,98527.88
2023-04-29T19:30:00.907Z,98525.34
2023-04-29T19:32:34.152Z,98531.97
2023-04-29T19:35:07.779Z,98531.28
2023-04-29T19:37:40.491Z,98541.78
2023-04-29T19:40:13.420Z,98533.94
2023-04-29T19:42:45.746Z,98544.53
2023-04-29T19:45:18.060Z,98551.84
2023-04-29T19:47:51.255Z,98547.25
2023-04-29T19:50:23.703Z,98543.28
2023-04-29T19:52:56.531Z,98549.91
2023-04-29T19:55:29.283Z,98543.34
2023-04-29T19:58:02.026Z,98544.09
2023-04-29T20:00:36.704Z,98551.38
2023-04-29T20:03:09.089Z,98546.19
2023-04-29T20:05:41.803Z,98544.16
2023-04-29T20:08:14.239Z,98550.19
2023-04-29T20:10:46.316Z,98548.97
2023-04-29T20:13:19.448Z,98549.63
2023-04-29T20:15:51.846Z,98547.59
2023-04-29T20:18:24.141Z,98550.94
2023-04-29T20:20:57.338Z,98558.22
2023-04-29T20:26:22.699Z,98550.97
2023-04-29T20:28:55.967Z,98553.66
2023-04-29T20:31:28.917Z,98558.34
2023-04-29T20:34:20.053Z,98551.75
2023-04-29T20:36:52.385Z,98558.47
2023-04-29T20:39:28.048Z,98557.16
2023-04-29T20:44:56.631Z,98549.22
2023-04-29T20:47:30.363Z,98552.53
2023-04-29T20:50:05.263Z,98555.22
2023-04-29T20:52:37.218Z,98550.66
2023-04-29T20:55:10.774Z,98557.19
2023-04-29T20:57:43.097Z,98551.25
2023-04-29T21:00:15.242Z,98553.91
2023-04-29T21:02:47.992Z,98555.94
2023-04-29T21:05:20.034Z,98548.00
2023-04-29T21:07:53.516Z,98558.56
2023-04-29T21:10:25.797Z,98553.97
2023-04-29T21:12:58.733Z,98556.72
2023-04-29T21:15:31.471Z,98564.66
2023-04-29T21:18:04.931Z,98568.63
2023-04-29T21:20:37.265Z,98560.75
2023-04-29T21:23:09.591Z,98558.13
2023-04-29T21:25:41.436Z,98557.50
2023-04-29T21:28:16.773Z,98562.81
2023-04-29T21:30:48.953Z,98556.22
2023-04-29T21:33:21.886Z,98555.59
2023-04-29T21:35:53.855Z,98564.88
2023-04-29T21:38:26.971Z,98566.16
2023-04-29T21:41:00.635Z,98571.47
2023-04-29T21:43:33.935Z,98564.19
2023-04-29T21:46:07.136Z,98567.53
2023-04-29T21:48:40.476Z,98564.22
2023-04-29T21:51:12.530Z,98564.28
2023-04-29T21:53:46.196Z,98563.59
2023-04-29T21:56:18.255Z,98560.31
2023-04-29T21:58:51.228Z,98562.34
2023-04-29T22:01:41.804Z,98558.41
2023-04-29T22:04:16.738Z,98563.03
2023-04-29T22:06:48.647Z,98560.44
2023-04-29T22:09:21.919Z,98567.69
2023-04-29T22:11:54.254Z,98561.69
2023-04-29T22:14:27.030Z,98559.00
2023-04-29T22:16:59.028Z,98555.75
2023-04-29T22:19:31.695Z,98561.69
2023-04-29T22:22:04.201Z,98551.81
2023-04-29T22:24:36.897Z,98547.81
2023-04-29T22:27:08.888Z,98549.84
2023-04-29T22:29:41.543Z,98553.13
2023-04-29T22:32:14.349Z,98544.53
2023-04-29T22:34:46.702Z,98555.16
2023-04-29T22:37:18.979Z,98553.13
2023-04-29T22:39:52.416Z,98557.09
2023-04-29T22:42:24.583Z,98555.78
2023-04-29T22:47:48.989Z,98562.38
2023-04-29T22:50:22.866Z,98565.66
2023-04-29T22:52:55.148Z,98560.31
2023-04-29T22:55:28.239Z,98562.34
2023-04-29T22:58:00.517Z,98561.66
2023-04-29T23:00:33.327Z,98559.75
2023-04-29T23:03:05.698Z,98569.66
2023-04-29T23:05:38.036Z,98559.03
2023-04-29T23:08:11.100Z,98560.38
2023-04-29T23:10:50.783Z,98557.69
2023-04-29T23:13:23.971Z,98566.31
2023-04-29T23:15:57.713Z,98556.41
2023-04-29T23:21:03.512Z,98571.56
2023-04-29T23:23:36.641Z,98582.22
2023-04-29T23:26:09.071Z,98574.28
2023-04-29T23:28:41.744Z,98574.25
2023-04-29T23:31:13.697Z,98579.56
2023-04-29T23:33:46.851Z,98573.56
2023-04-29T23:36:18.762Z,98574.94
2023-04-29T23:38:51.836Z,98579.59
2023-04-29T23:41:23.679Z,98578.25
2023-04-29T23:44:01.317Z,98584.19
2023-04-29T23:46:34.609Z,98581.59
2023-04-29T23:49:07.008Z,98580.91
2023-04-29T23:51:39.684Z,98575.63
2023-04-29T23:54:12.001Z,98584.28
2023-04-29T23:56:43.844Z,98574.38
2023-04-29T23:59:16.539Z,98569.78
